sensor_id;sensor_type;location;lat;lon;timestamp;temperature;humidity
52107;DHT22;38105;52.968;5.974;2022-12-28T00:01:22;5.50;99.90
52107;DHT22;38105;52.968;5.974;2022-12-28T00:03:49;5.50;99.90
52107;DHT22;38105;52.968;5.974;2022-12-28T00:06:16;5.40;99.90
52107;DHT22;38105;52.968;5.974;2022-12-28T00:08:42;5.40;99.90
52107;DHT22;38105;52.968;5.974;2022-12-28T00:11:13;5.40;99.90
52107;DHT22;38105;52.968;5.974;2022-12-28T00:13:39;5.60;99.90
52107;DHT22;38105;52.968;5.974;2022-12-28T00:16:11;5.40;99.90
52107;DHT22;38105;52.968;5.974;2022-12-28T00:18:37;5.60;99.90
52107;DHT22;38105;52.968;5.974;2022-12-28T00:21:04;5.60;99.90
52107;DHT22;38105;52.968;5.974;2022-12-28T00:23:32;5.60;99.90
52107;DHT22;38105;52.968;5.974;2022-12-28T00:26:12;5.40;99.90
52107;DHT22;38105;52.968;5.974;2022-12-28T00:28:38;5.60;99.90
52107;DHT22;38105;52.968;5.974;2022-12-28T00:31:04;5.40;99.90
52107;DHT22;38105;52.968;5.974;2022-12-28T00:33:30;5.60;99.90
52107;DHT22;38105;52.968;5.974;2022-12-28T00:35:57;5.60;99.90
52107;DHT22;38105;52.968;5.974;2022-12-28T00:38:24;5.60;99.90
52107;DHT22;38105;52.968;5.974;2022-12-28T00:40:50;5.40;99.90
52107;DHT22;38105;52.968;5.974;2022-12-28T00:43:16;5.50;99.90
52107;DHT22;38105;52.968;5.974;2022-12-28T00:45:46;5.60;99.90
52107;DHT22;38105;52.968;5.974;2022-12-28T00:48:12;5.70;99.90
52107;DHT22;38105;52.968;5.974;2022-12-28T00:50:38;5.60;99.90
52107;DHT22;38105;52.968;5.974;2022-12-28T00:53:04;5.50;99.90
52107;DHT22;38105;52.968;5.974;2022-12-28T00:55:31;5.70;99.90
52107;DHT22;38105;52.968;5.974;2022-12-28T00:58:00;5.60;99.90
52107;DHT22;38105;52.968;5.974;2022-12-28T01:00:27;5.50;99.90
52107;DHT22;38105;52.968;5.974;2022-12-28T01:02:53;5.60;99.90
52107;DHT22;38105;52.968;5.974;2022-12-28T01:05:19;5.70;99.90
52107;DHT22;38105;52.968;5.974;2022-12-28T01:07:45;5.70;99.90
52107;DHT22;38105;52.968;5.974;2022-12-28T01:10:10;5.70;99.90
52107;DHT22;38105;52.968;5.974;2022-12-28T01:12:36;5.70;99.90
52107;DHT22;38105;52.968;5.974;2022-12-28T01:15:03;5.70;99.90
52107;DHT22;38105;52.968;5.974;2022-12-28T01:17:29;5.60;99.90
52107;DHT22;38105;52.968;5.974;2022-12-28T01:19:58;5.80;99.90
52107;DHT22;38105;52.968;5.974;2022-12-28T01:22:28;5.60;99.90
52107;DHT22;38105;52.968;5.974;2022-12-28T01:24:53;5.80;99.90
52107;DHT22;38105;52.968;5.974;2022-12-28T01:27:19;5.50;99.90
52107;DHT22;38105;52.968;5.974;2022-12-28T01:29:45;5.60;99.90
52107;DHT22;38105;52.968;5.974;2022-12-28T01:32:11;5.90;99.90
52107;DHT22;38105;52.968;5.974;2022-12-28T01:34:36;5.70;99.90
52107;DHT22;38105;52.968;5.974;2022-12-28T01:37:02;5.60;99.90
52107;DHT22;38105;52.968;5.974;2022-12-28T01:39:28;5.90;99.90
52107;DHT22;38105;52.968;5.974;2022-12-28T01:41:54;5.70;99.90
52107;DHT22;38105;52.968;5.974;2022-12-28T01:46:55;6.00;99.90
52107;DHT22;38105;52.968;5.974;2022-12-28T01:52:05;6.00;99.90
52107;DHT22;38105;52.968;5.974;2022-12-28T01:54:37;5.90;99.90
52107;DHT22;38105;52.968;5.974;2022-12-28T01:57:07;5.90;99.90
52107;DHT22;38105;52.968;5.974;2022-12-28T01:59:37;6.20;99.90
52107;DHT22;38105;52.968;5.974;2022-12-28T02:02:04;6.10;99.90
52107;DHT22;38105;52.968;5.974;2022-12-28T02:04:30;6.00;99.90
52107;DHT22;38105;52.968;5.974;2022-12-28T02:06:55;6.20;99.90
52107;DHT22;38105;52.968;5.974;2022-12-28T02:09:41;6.00;99.90
52107;DHT22;38105;52.968;5.974;2022-12-28T02:12:12;6.20;99.90
52107;DHT22;38105;52.968;5.974;2022-12-28T02:14:38;5.80;99.90
52107;DHT22;38105;52.968;5.974;2022-12-28T02:17:07;5.90;99.90
52107;DHT22;38105;52.968;5.974;2022-12-28T02:19:44;6.10;99.90
52107;DHT22;38105;52.968;5.974;2022-12-28T02:30:55;5.90;99.90
52107;DHT22;38105;52.968;5.974;2022-12-28T02:33:35;6.30;99.90
52107;DHT22;38105;52.968;5.974;2022-12-28T02:36:27;6.20;99.90
52107;DHT22;38105;52.968;5.974;2022-12-28T02:39:12;5.80;99.90
52107;DHT22;38105;52.968;5.974;2022-12-28T02:41:40;6.30;99.90
52107;DHT22;38105;52.968;5.974;2022-12-28T02:44:06;6.30;99.90
52107;DHT22;38105;52.968;5.974;2022-12-28T02:46:33;6.30;99.90
52107;DHT22;38105;52.968;5.974;2022-12-28T03:00:09;6.20;99.90
52107;DHT22;38105;52.968;5.974;2022-12-28T03:05:42;6.10;99.90
52107;DHT22;38105;52.968;5.974;2022-12-28T03:12:00;5.80;99.90
52107;DHT22;38105;52.968;5.974;2022-12-28T03:14:38;5.80;99.90
52107;DHT22;38105;52.968;5.974;2022-12-28T03:17:07;6.40;99.90
52107;DHT22;38105;52.968;5.974;2022-12-28T03:19:56;6.20;99.90
52107;DHT22;38105;52.968;5.974;2022-12-28T03:22:41;6.10;99.90
52107;DHT22;38105;52.968;5.974;2022-12-28T03:25:36;5.90;99.90
52107;DHT22;38105;52.968;5.974;2022-12-28T03:28:23;6.50;99.90
52107;DHT22;38105;52.968;5.974;2022-12-28T03:31:13;6.40;99.90
52107;DHT22;38105;52.968;5.974;2022-12-28T03:33:49;6.30;99.90
52107;DHT22;38105;52.968;5.974;2022-12-28T03:39:40;6.20;99.90
52107;DHT22;38105;52.968;5.974;2022-12-28T03:45:23;6.50;99.90
52107;DHT22;38105;52.968;5.974;2022-12-28T03:47:51;6.10;99.90
52107;DHT22;38105;52.968;5.974;2022-12-28T03:50:18;6.00;99.90
52107;DHT22;38105;52.968;5.974;2022-12-28T03:52:44;6.60;99.90
52107;DHT22;38105;52.968;5.974;2022-12-28T03:55:13;6.10;99.90
52107;DHT22;38105;52.968;5.974;2022-12-28T03:57:39;6.60;99.90
52107;DHT22;38105;52.968;5.974;2022-12-28T04:00:05;6.60;99.90
52107;DHT22;38105;52.968;5.974;2022-12-28T04:02:34;6.50;99.90
52107;DHT22;38105;52.968;5.974;2022-12-28T04:04:59;6.70;99.90
52107;DHT22;38105;52.968;5.974;2022-12-28T04:07:25;6.70;99.90
52107;DHT22;38105;52.968;5.974;2022-12-28T04:09:51;6.40;99.90
52107;DHT22;38105;52.968;5.974;2022-12-28T04:12:16;6.20;99.90
52107;DHT22;38105;52.968;5.974;2022-12-28T04:14:42;6.30;99.90
52107;DHT22;38105;52.968;5.974;2022-12-28T04:17:08;6.80;99.90
52107;DHT22;38105;52.968;5.974;2022-12-28T04:19:36;6.50;99.90
52107;DHT22;38105;52.968;5.974;2022-12-28T04:22:01;6.50;99.90
52107;DHT22;38105;52.968;5.974;2022-12-28T04:24:27;6.90;99.90
52107;DHT22;38105;52.968;5.974;2022-12-28T04:26:53;7.00;99.90
52107;DHT22;38105;52.968;5.974;2022-12-28T04:29:21;7.10;99.90
52107;DHT22;38105;52.968;5.974;2022-12-28T04:31:47;6.70;99.90
52107;DHT22;38105;52.968;5.974;2022-12-28T04:34:13;6.60;99.90
52107;DHT22;38105;52.968;5.974;2022-12-28T04:36:38;6.80;99.90
52107;DHT22;38105;52.968;5.974;2022-12-28T04:39:04;6.90;99.90
52107;DHT22;38105;52.968;5.974;2022-12-28T04:41:30;6.60;99.90
52107;DHT22;38105;52.968;5.974;2022-12-28T04:43:56;6.80;99.90
52107;DHT22;38105;52.968;5.974;2022-12-28T04:46:22;7.20;99.90
52107;DHT22;38105;52.968;5.974;2022-12-28T04:48:49;7.30;99.90
52107;DHT22;38105;52.968;5.974;2022-12-28T04:51:21;6.70;99.90
52107;DHT22;38105;52.968;5.974;2022-12-28T04:53:47;6.90;99.90
52107;DHT22;38105;52.968;5.974;2022-12-28T04:56:14;7.30;99.90
52107;DHT22;38105;52.968;5.974;2022-12-28T04:58:40;6.80;99.90
52107;DHT22;38105;52.968;5.974;2022-12-28T05:01:10;7.20;99.90
52107;DHT22;38105;52.968;5.974;2022-12-28T05:03:37;6.80;99.90
52107;DHT22;38105;52.968;5.974;2022-12-28T05:06:06;7.50;99.90
52107;DHT22;38105;52.968;5.974;2022-12-28T05:08:36;7.50;99.90
52107;DHT22;38105;52.968;5.974;2022-12-28T05:11:04;6.90;99.90
52107;DHT22;38105;52.968;5.974;2022-12-28T05:13:30;7.50;99.90
52107;DHT22;38105;52.968;5.974;2022-12-28T05:16:00;7.30;99.90
52107;DHT22;38105;52.968;5.974;2022-12-28T05:18:27;7.10;99.90
52107;DHT22;38105;52.968;5.974;2022-12-28T05:21:08;7.00;99.90
52107;DHT22;38105;52.968;5.974;2022-12-28T05:23:35;7.20;99.90
52107;DHT22;38105;52.968;5.974;2022-12-28T05:26:05;7.60;99.90
52107;DHT22;38105;52.968;5.974;2022-12-28T05:28:32;7.50;99.90
52107;DHT22;38105;52.968;5.974;2022-12-28T05:30:59;7.10;99.90
52107;DHT22;38105;52.968;5.974;2022-12-28T05:33:26;7.10;99.90
52107;DHT22;38105;52.968;5.974;2022-12-28T05:35:52;7.00;99.90
52107;DHT22;38105;52.968;5.974;2022-12-28T05:38:18;7.70;99.90
52107;DHT22;38105;52.968;5.974;2022-12-28T05:40:44;7.10;99.90
52107;DHT22;38105;52.968;5.974;2022-12-28T05:43:09;7.80;99.90
52107;DHT22;38105;52.968;5.974;2022-12-28T05:45:35;7.60;99.90
52107;DHT22;38105;52.968;5.974;2022-12-28T05:48:00;7.80;99.90
52107;DHT22;38105;52.968;5.974;2022-12-28T05:50:26;7.70;99.90
52107;DHT22;38105;52.968;5.974;2022-12-28T05:52:52;7.10;99.90
52107;DHT22;38105;52.968;5.974;2022-12-28T05:55:18;7.80;99.90
52107;DHT22;38105;52.968;5.974;2022-12-28T05:57:43;7.60;99.90
52107;DHT22;38105;52.968;5.974;2022-12-28T06:00:09;7.60;99.90
52107;DHT22;38105;52.968;5.974;2022-12-28T06:02:38;7.20;99.90
52107;DHT22;38105;52.968;5.974;2022-12-28T06:05:04;7.30;99.90
52107;DHT22;38105;52.968;5.974;2022-12-28T06:07:30;7.20;99.90
52107;DHT22;38105;52.968;5.974;2022-12-28T06:09:58;7.80;99.90
52107;DHT22;38105;52.968;5.974;2022-12-28T06:12:24;7.80;99.90
52107;DHT22;38105;52.968;5.974;2022-12-28T06:14:49;7.30;99.90
52107;DHT22;38105;52.968;5.974;2022-12-28T06:17:15;7.30;99.90
52107;DHT22;38105;52.968;5.974;2022-12-28T06:19:40;7.80;99.90
52107;DHT22;38105;52.968;5.974;2022-12-28T06:22:06;7.70;99.90
52107;DHT22;38105;52.968;5.974;2022-12-28T06:24:32;7.70;99.90
52107;DHT22;38105;52.968;5.974;2022-12-28T06:27:00;7.80;99.90
52107;DHT22;38105;52.968;5.974;2022-12-28T06:29:26;7.70;99.90
52107;DHT22;38105;52.968;5.974;2022-12-28T06:31:52;7.40;99.90
52107;DHT22;38105;52.968;5.974;2022-12-28T06:34:19;7.30;99.90
52107;DHT22;38105;52.968;5.974;2022-12-28T06:36:45;7.90;99.90
52107;DHT22;38105;52.968;5.974;2022-12-28T06:39:14;7.80;99.90
52107;DHT22;38105;52.968;5.974;2022-12-28T06:41:40;7.40;99.90
52107;DHT22;38105;52.968;5.974;2022-12-28T06:44:10;7.60;99.90
52107;DHT22;38105;52.968;5.974;2022-12-28T06:46:37;7.60;99.90
52107;DHT22;38105;52.968;5.974;2022-12-28T06:49:03;8.00;99.90
52107;DHT22;38105;52.968;5.974;2022-12-28T06:51:33;7.40;99.90
52107;DHT22;38105;52.968;5.974;2022-12-28T06:54:05;7.80;99.90
52107;DHT22;38105;52.968;5.974;2022-12-28T06:56:33;8.10;99.90
52107;DHT22;38105;52.968;5.974;2022-12-28T06:58:59;7.60;99.90
52107;DHT22;38105;52.968;5.974;2022-12-28T07:01:33;7.60;99.90
52107;DHT22;38105;52.968;5.974;2022-12-28T07:04:00;8.10;99.90
52107;DHT22;38105;52.968;5.974;2022-12-28T07:06:35;7.40;99.90
52107;DHT22;38105;52.968;5.974;2022-12-28T07:09:05;7.50;99.90
52107;DHT22;38105;52.968;5.974;2022-12-28T07:11:31;8.00;99.90
52107;DHT22;38105;52.968;5.974;2022-12-28T07:13:58;7.60;99.90
52107;DHT22;38105;52.968;5.974;2022-12-28T07:16:25;7.50;99.90
52107;DHT22;38105;52.968;5.974;2022-12-28T07:18:54;7.80;99.90
52107;DHT22;38105;52.968;5.974;2022-12-28T07:21:22;7.50;99.90
52107;DHT22;38105;52.968;5.974;2022-12-28T07:23:50;7.50;99.90
52107;DHT22;38105;52.968;5.974;2022-12-28T07:26:27;8.00;99.90
52107;DHT22;38105;52.968;5.974;2022-12-28T07:28:55;7.50;99.90
52107;DHT22;38105;52.968;5.974;2022-12-28T07:31:24;8.20;99.90
52107;DHT22;38105;52.968;5.974;2022-12-28T07:33:51;8.20;99.90
52107;DHT22;38105;52.968;5.974;2022-12-28T07:36:19;7.60;99.90
52107;DHT22;38105;52.968;5.974;2022-12-28T07:38:45;7.50;99.90
52107;DHT22;38105;52.968;5.974;2022-12-28T07:41:16;8.20;99.90
52107;DHT22;38105;52.968;5.974;2022-12-28T07:43:42;7.70;99.90
52107;DHT22;38105;52.968;5.974;2022-12-28T07:46:14;8.20;99.90
52107;DHT22;38105;52.968;5.974;2022-12-28T07:48:41;7.60;99.90
52107;DHT22;38105;52.968;5.974;2022-12-28T07:51:11;8.20;99.90
52107;DHT22;38105;52.968;5.974;2022-12-28T07:53:39;7.70;99.90
52107;DHT22;38105;52.968;5.974;2022-12-28T07:56:05;8.10;99.90
52107;DHT22;38105;52.968;5.974;2022-12-28T07:58:32;8.30;99.90
52107;DHT22;38105;52.968;5.974;2022-12-28T08:01:12;8.20;99.90
52107;DHT22;38105;52.968;5.974;2022-12-28T08:03:39;7.70;99.90
52107;DHT22;38105;52.968;5.974;2022-12-28T08:06:07;8.30;99.90
52107;DHT22;38105;52.968;5.974;2022-12-28T08:08:38;8.30;99.90
52107;DHT22;38105;52.968;5.974;2022-12-28T08:11:08;7.70;99.90
52107;DHT22;38105;52.968;5.974;2022-12-28T08:13:36;8.30;99.90
52107;DHT22;38105;52.968;5.974;2022-12-28T08:16:02;8.00;99.90
52107;DHT22;38105;52.968;5.974;2022-12-28T08:18:29;7.70;99.90
52107;DHT22;38105;52.968;5.974;2022-12-28T08:21:00;7.70;99.90
52107;DHT22;38105;52.968;5.974;2022-12-28T08:23:30;7.70;99.90
52107;DHT22;38105;52.968;5.974;2022-12-28T08:26:03;7.80;99.90
52107;DHT22;38105;52.968;5.974;2022-12-28T08:28:29;8.20;99.90
52107;DHT22;38105;52.968;5.974;2022-12-28T08:30:54;7.80;99.90
52107;DHT22;38105;52.968;5.974;2022-12-28T08:33:20;7.80;99.90
52107;DHT22;38105;52.968;5.974;2022-12-28T08:35:45;8.10;99.90
52107;DHT22;38105;52.968;5.974;2022-12-28T08:38:11;8.00;99.90
52107;DHT22;38105;52.968;5.974;2022-12-28T08:40:37;7.80;99.90
52107;DHT22;38105;52.968;5.974;2022-12-28T08:43:02;7.80;99.90
52107;DHT22;38105;52.968;5.974;2022-12-28T08:45:28;8.40;99.90
52107;DHT22;38105;52.968;5.974;2022-12-28T08:47:54;7.70;99.90
52107;DHT22;38105;52.968;5.974;2022-12-28T08:50:20;7.80;99.90
52107;DHT22;38105;52.968;5.974;2022-12-28T08:52:45;7.80;99.90
52107;DHT22;38105;52.968;5.974;2022-12-28T08:55:14;8.30;99.90
52107;DHT22;38105;52.968;5.974;2022-12-28T08:57:39;8.30;99.90
52107;DHT22;38105;52.968;5.974;2022-12-28T09:00:05;8.40;99.90
52107;DHT22;38105;52.968;5.974;2022-12-28T09:02:31;7.90;99.90
52107;DHT22;38105;52.968;5.974;2022-12-28T09:04:57;8.30;99.90
52107;DHT22;38105;52.968;5.974;2022-12-28T09:07:22;8.40;99.90
52107;DHT22;38105;52.968;5.974;2022-12-28T09:09:48;7.90;99.90
52107;DHT22;38105;52.968;5.974;2022-12-28T09:12:13;7.80;99.90
52107;DHT22;38105;52.968;5.974;2022-12-28T09:14:42;7.80;99.90
52107;DHT22;38105;52.968;5.974;2022-12-28T09:17:07;7.90;99.90
52107;DHT22;38105;52.968;5.974;2022-12-28T09:19:33;8.50;99.90
52107;DHT22;38105;52.968;5.974;2022-12-28T09:21:59;8.00;99.90
52107;DHT22;38105;52.968;5.974;2022-12-28T09:24:24;8.50;99.90
52107;DHT22;38105;52.968;5.974;2022-12-28T09:26:50;8.00;99.90
52107;DHT22;38105;52.968;5.974;2022-12-28T09:29:17;7.90;99.90
52107;DHT22;38105;52.968;5.974;2022-12-28T09:31:42;8.50;99.90
52107;DHT22;38105;52.968;5.974;2022-12-28T09:34:10;8.20;99.90
52107;DHT22;38105;52.968;5.974;2022-12-28T09:36:39;8.60;99.90
52107;DHT22;38105;52.968;5.974;2022-12-28T09:39:10;8.40;99.90
52107;DHT22;38105;52.968;5.974;2022-12-28T09:44:43;8.70;99.90
52107;DHT22;38105;52.968;5.974;2022-12-28T09:47:29;8.60;99.90
52107;DHT22;38105;52.968;5.974;2022-12-28T09:50:06;8.20;99.90
52107;DHT22;38105;52.968;5.974;2022-12-28T09:52:45;8.80;99.90
52107;DHT22;38105;52.968;5.974;2022-12-28T09:55:17;8.50;99.90
52107;DHT22;38105;52.968;5.974;2022-12-28T09:57:55;8.40;99.90
52107;DHT22;38105;52.968;5.974;2022-12-28T10:00:26;8.30;99.90
52107;DHT22;38105;52.968;5.974;2022-12-28T10:03:03;8.30;99.90
52107;DHT22;38105;52.968;5.974;2022-12-28T10:05:29;9.00;99.90
52107;DHT22;38105;52.968;5.974;2022-12-28T10:07:57;8.90;99.90
52107;DHT22;38105;52.968;5.974;2022-12-28T10:10:24;8.40;99.90
52107;DHT22;38105;52.968;5.974;2022-12-28T10:12:51;8.40;99.90
52107;DHT22;38105;52.968;5.974;2022-12-28T10:15:17;8.50;99.90
52107;DHT22;38105;52.968;5.974;2022-12-28T10:17:43;8.90;99.90
52107;DHT22;38105;52.968;5.974;2022-12-28T10:20:18;8.80;99.90
52107;DHT22;38105;52.968;5.974;2022-12-28T10:22:48;8.80;99.90
52107;DHT22;38105;52.968;5.974;2022-12-28T10:25:17;9.00;99.90
52107;DHT22;38105;52.968;5.974;2022-12-28T10:27:44;9.10;99.90
52107;DHT22;38105;52.968;5.974;2022-12-28T10:32:55;9.10;99.90
52107;DHT22;38105;52.968;5.974;2022-12-28T10:37:48;8.90;99.90
52107;DHT22;38105;52.968;5.974;2022-12-28T10:40:26;8.90;99.90
52107;DHT22;38105;52.968;5.974;2022-12-28T10:42:53;8.80;99.90
52107;DHT22;38105;52.968;5.974;2022-12-28T10:45:48;9.10;99.90
52107;DHT22;38105;52.968;5.974;2022-12-28T10:48:17;9.10;99.90
52107;DHT22;38105;52.968;5.974;2022-12-28T10:50:52;8.40;99.90
52107;DHT22;38105;52.968;5.974;2022-12-28T10:53:44;9.00;99.90
52107;DHT22;38105;52.968;5.974;2022-12-28T10:58:46;9.10;99.90
52107;DHT22;38105;52.968;5.974;2022-12-28T11:08:38;8.70;99.90
52107;DHT22;38105;52.968;5.974;2022-12-28T11:11:09;8.90;99.90
52107;DHT22;38105;52.968;5.974;2022-12-28T11:13:42;8.90;99.90
52107;DHT22;38105;52.968;5.974;2022-12-28T11:16:12;9.20;99.90
52107;DHT22;38105;52.968;5.974;2022-12-28T11:18:39;9.10;99.90
52107;DHT22;38105;52.968;5.974;2022-12-28T11:21:11;9.10;99.90
52107;DHT22;38105;52.968;5.974;2022-12-28T11:23:39;8.50;99.90
52107;DHT22;38105;52.968;5.974;2022-12-28T11:26:10;8.60;99.90
52107;DHT22;38105;52.968;5.974;2022-12-28T11:28:41;8.60;99.90
52107;DHT22;38105;52.968;5.974;2022-12-28T11:31:33;9.00;99.90
52107;DHT22;38105;52.968;5.974;2022-12-28T11:34:03;8.90;99.90
52107;DHT22;38105;52.968;5.974;2022-12-28T11:36:31;8.50;99.90
52107;DHT22;38105;52.968;5.974;2022-12-28T11:38:58;9.10;99.90
52107;DHT22;38105;52.968;5.974;2022-12-28T11:41:46;8.50;99.90
52107;DHT22;38105;52.968;5.974;2022-12-28T11:47:20;8.90;99.90
52107;DHT22;38105;52.968;5.974;2022-12-28T11:49:46;9.10;99.90
52107;DHT22;38105;52.968;5.974;2022-12-28T11:57:38;9.10;99.90
52107;DHT22;38105;52.968;5.974;2022-12-28T12:08:00;9.00;99.90
52107;DHT22;38105;52.968;5.974;2022-12-28T12:10:29;8.40;99.90
52107;DHT22;38105;52.968;5.974;2022-12-28T12:13:01;8.70;99.90
52107;DHT22;38105;52.968;5.974;2022-12-28T12:15:38;8.70;99.90
52107;DHT22;38105;52.968;5.974;2022-12-28T12:18:06;8.60;99.90
52107;DHT22;38105;52.968;5.974;2022-12-28T12:20:50;9.00;99.90
52107;DHT22;38105;52.968;5.974;2022-12-28T12:23:23;8.40;99.90
52107;DHT22;38105;52.968;5.974;2022-12-28T12:25:50;8.50;99.90
52107;DHT22;38105;52.968;5.974;2022-12-28T12:28:31;8.80;99.90
52107;DHT22;38105;52.968;5.974;2022-12-28T12:30:58;9.10;99.90
52107;DHT22;38105;52.968;5.974;2022-12-28T12:33:29;8.60;99.90
52107;DHT22;38105;52.968;5.974;2022-12-28T12:41:40;8.50;99.90
52107;DHT22;38105;52.968;5.974;2022-12-28T12:47:28;8.50;99.90
52107;DHT22;38105;52.968;5.974;2022-12-28T12:55:34;8.50;99.90
52107;DHT22;38105;52.968;5.974;2022-12-28T12:58:14;8.70;99.90
52107;DHT22;38105;52.968;5.974;2022-12-28T13:01:14;8.50;99.90
52107;DHT22;38105;52.968;5.974;2022-12-28T13:03:45;9.10;99.90
52107;DHT22;38105;52.968;5.974;2022-12-28T13:06:16;9.10;99.90
52107;DHT22;38105;52.968;5.974;2022-12-28T13:08:53;8.70;99.90
52107;DHT22;38105;52.968;5.974;2022-12-28T13:11:20;9.10;99.90
52107;DHT22;38105;52.968;5.974;2022-12-28T13:13:49;8.50;99.90
52107;DHT22;38105;52.968;5.974;2022-12-28T13:16:18;8.80;99.90
52107;DHT22;38105;52.968;5.974;2022-12-28T13:19:01;9.00;99.90
52107;DHT22;38105;52.968;5.974;2022-12-28T13:21:29;8.60;99.90
52107;DHT22;38105;52.968;5.974;2022-12-28T13:24:13;8.50;99.90
52107;DHT22;38105;52.968;5.974;2022-12-28T13:26:41;9.10;99.90
52107;DHT22;38105;52.968;5.974;2022-12-28T13:29:08;8.60;99.90
52107;DHT22;38105;52.968;5.974;2022-12-28T13:31:39;9.00;99.90
52107;DHT22;38105;52.968;5.974;2022-12-28T13:36:50;8.60;99.90
52107;DHT22;38105;52.968;5.974;2022-12-28T13:39:17;8.50;99.90
52107;DHT22;38105;52.968;5.974;2022-12-28T13:44:31;8.50;99.90
52107;DHT22;38105;52.968;5.974;2022-12-28T13:47:03;8.80;99.90
52107;DHT22;38105;52.968;5.974;2022-12-28T13:49:34;8.50;99.90
52107;DHT22;38105;52.968;5.974;2022-12-28T13:52:00;8.70;99.90
52107;DHT22;38105;52.968;5.974;2022-12-28T13:54:26;8.30;99.90
52107;DHT22;38105;52.968;5.974;2022-12-28T13:56:54;8.80;99.90
52107;DHT22;38105;52.968;5.974;2022-12-28T13:59:21;8.50;99.90
52107;DHT22;38105;52.968;5.974;2022-12-28T14:01:48;8.80;99.90
52107;DHT22;38105;52.968;5.974;2022-12-28T14:04:20;8.30;99.90
52107;DHT22;38105;52.968;5.974;2022-12-28T14:06:48;8.30;99.90
52107;DHT22;38105;52.968;5.974;2022-12-28T14:09:16;8.40;99.90
52107;DHT22;38105;52.968;5.974;2022-12-28T14:11:44;8.80;99.90
52107;DHT22;38105;52.968;5.974;2022-12-28T14:14:10;8.40;99.90
52107;DHT22;38105;52.968;5.974;2022-12-28T14:16:37;8.80;99.90
52107;DHT22;38105;52.968;5.974;2022-12-28T14:19:05;8.50;99.90
52107;DHT22;38105;52.968;5.974;2022-12-28T14:21:42;8.80;99.90
52107;DHT22;38105;52.968;5.974;2022-12-28T14:24:12;8.40;99.90
52107;DHT22;38105;52.968;5.974;2022-12-28T14:26:56;8.60;99.90
52107;DHT22;38105;52.968;5.974;2022-12-28T14:29:34;8.80;99.90
52107;DHT22;38105;52.968;5.974;2022-12-28T14:32:03;8.50;99.90
52107;DHT22;38105;52.968;5.974;2022-12-28T14:34:31;8.90;99.90
52107;DHT22;38105;52.968;5.974;2022-12-28T14:36:58;8.80;99.90
52107;DHT22;38105;52.968;5.974;2022-12-28T14:41:49;8.50;99.90
52107;DHT22;38105;52.968;5.974;2022-12-28T14:44:24;8.50;99.90
52107;DHT22;38105;52.968;5.974;2022-12-28T14:46:51;8.60;99.90
52107;DHT22;38105;52.968;5.974;2022-12-28T14:51:54;8.90;99.90
52107;DHT22;38105;52.968;5.974;2022-12-28T14:54:24;8.50;99.90
52107;DHT22;38105;52.968;5.974;2022-12-28T14:57:00;8.90;99.90
52107;DHT22;38105;52.968;5.974;2022-12-28T14:59:30;8.60;99.90
52107;DHT22;38105;52.968;5.974;2022-12-28T15:01:57;8.70;99.90
52107;DHT22;38105;52.968;5.974;2022-12-28T15:06:53;8.60;99.90
52107;DHT22;38105;52.968;5.974;2022-12-28T15:09:19;8.60;99.90
52107;DHT22;38105;52.968;5.974;2022-12-28T15:11:45;9.00;99.90
52107;DHT22;38105;52.968;5.974;2022-12-28T15:14:11;8.60;99.90
52107;DHT22;38105;52.968;5.974;2022-12-28T15:16:37;8.60;99.90
52107;DHT22;38105;52.968;5.974;2022-12-28T15:19:03;8.60;99.90
52107;DHT22;38105;52.968;5.974;2022-12-28T15:21:29;8.90;99.90
52107;DHT22;38105;52.968;5.974;2022-12-28T15:23:55;9.00;99.90
52107;DHT22;38105;52.968;5.974;2022-12-28T15:26:23;8.50;99.90
52107;DHT22;38105;52.968;5.974;2022-12-28T15:28:49;8.50;99.90
52107;DHT22;38105;52.968;5.974;2022-12-28T15:31:17;8.90;99.90
52107;DHT22;38105;52.968;5.974;2022-12-28T15:33:44;8.70;99.90
52107;DHT22;38105;52.968;5.974;2022-12-28T15:36:12;8.50;99.90
52107;DHT22;38105;52.968;5.974;2022-12-28T15:38:38;8.60;99.90
52107;DHT22;38105;52.968;5.974;2022-12-28T15:41:05;8.60;99.90
52107;DHT22;38105;52.968;5.974;2022-12-28T15:43:53;8.80;99.90
52107;DHT22;38105;52.968;5.974;2022-12-28T15:46:18;8.70;99.90
52107;DHT22;38105;52.968;5.974;2022-12-28T15:48:44;8.80;99.90
52107;DHT22;38105;52.968;5.974;2022-12-28T15:51:10;8.90;99.90
52107;DHT22;38105;52.968;5.974;2022-12-28T15:53:35;8.50;99.90
52107;DHT22;38105;52.968;5.974;2022-12-28T15:56:01;8.60;99.90
52107;DHT22;38105;52.968;5.974;2022-12-28T15:58:28;8.70;99.90
52107;DHT22;38105;52.968;5.974;2022-12-28T16:00:53;8.80;99.90
52107;DHT22;38105;52.968;5.974;2022-12-28T16:03:19;8.80;99.90
52107;DHT22;38105;52.968;5.974;2022-12-28T16:05:45;8.90;99.90
52107;DHT22;38105;52.968;5.974;2022-12-28T16:08:10;8.50;99.90
52107;DHT22;38105;52.968;5.974;2022-12-28T16:10:36;8.60;99.90
52107;DHT22;38105;52.968;5.974;2022-12-28T16:13:01;8.80;99.90
52107;DHT22;38105;52.968;5.974;2022-12-28T16:15:27;8.50;99.90
52107;DHT22;38105;52.968;5.974;2022-12-28T16:17:53;8.90;99.90
52107;DHT22;38105;52.968;5.974;2022-12-28T16:20:19;8.40;99.90
52107;DHT22;38105;52.968;5.974;2022-12-28T16:22:45;8.40;99.90
52107;DHT22;38105;52.968;5.974;2022-12-28T16:25:11;8.40;99.90
52107;DHT22;38105;52.968;5.974;2022-12-28T16:27:36;8.50;99.90
52107;DHT22;38105;52.968;5.974;2022-12-28T16:30:03;8.60;99.90
52107;DHT22;38105;52.968;5.974;2022-12-28T16:32:30;8.90;99.90
52107;DHT22;38105;52.968;5.974;2022-12-28T16:34:56;8.50;99.90
52107;DHT22;38105;52.968;5.974;2022-12-28T16:37:22;8.70;99.90
52107;DHT22;38105;52.968;5.974;2022-12-28T16:39:48;8.60;99.90
52107;DHT22;38105;52.968;5.974;2022-12-28T16:42:13;8.30;99.90
52107;DHT22;38105;52.968;5.974;2022-12-28T16:44:39;8.40;99.90
52107;DHT22;38105;52.968;5.974;2022-12-28T16:47:05;8.50;99.90
52107;DHT22;38105;52.968;5.974;2022-12-28T16:49:31;8.50;99.90
52107;DHT22;38105;52.968;5.974;2022-12-28T16:51:57;8.80;99.90
52107;DHT22;38105;52.968;5.974;2022-12-28T16:54:24;8.80;99.90
52107;DHT22;38105;52.968;5.974;2022-12-28T16:56:51;8.80;99.90
52107;DHT22;38105;52.968;5.974;2022-12-28T16:59:25;8.50;99.90
52107;DHT22;38105;52.968;5.974;2022-12-28T17:01:53;8.70;99.90
52107;DHT22;38105;52.968;5.974;2022-12-28T17:04:25;8.80;99.90
52107;DHT22;38105;52.968;5.974;2022-12-28T17:06:57;8.60;99.90
52107;DHT22;38105;52.968;5.974;2022-12-28T17:09:27;8.70;99.90
52107;DHT22;38105;52.968;5.974;2022-12-28T17:11:58;8.70;99.90
52107;DHT22;38105;52.968;5.974;2022-12-28T17:14:24;8.30;99.90
52107;DHT22;38105;52.968;5.974;2022-12-28T17:16:49;8.60;99.90
52107;DHT22;38105;52.968;5.974;2022-12-28T17:19:15;8.70;99.90
52107;DHT22;38105;52.968;5.974;2022-12-28T17:21:41;8.50;99.90
52107;DHT22;38105;52.968;5.974;2022-12-28T17:24:06;8.70;99.90
52107;DHT22;38105;52.968;5.974;2022-12-28T17:26:32;8.20;99.90
52107;DHT22;38105;52.968;5.974;2022-12-28T17:28:58;8.70;99.90
52107;DHT22;38105;52.968;5.974;2022-12-28T17:31:24;8.10;99.90
52107;DHT22;38105;52.968;5.974;2022-12-28T17:33:54;8.60;99.90
52107;DHT22;38105;52.968;5.974;2022-12-28T17:36:22;8.70;99.90